Libuse, LA (71348)

9:41 PM CST on February 20, 2017 (GMT -0600)
Tiffany Lane | | Change Station

Elev 125 ft 31.36 °N, 92.35 °W | Updated 32 seconds ago

Rain
Rain
58.5 °F
Feels Like 58.5 °F
N
4.0
Wind Variable Wind from SE

Today
High -- | Low -- °F
--% Chance of Precip.
Yesterday
High -- | Low -- °F
Precip. -- in
Pressure 30.01 in
Visibility 4.0 miles
Clouds Overcast 8000 ft
Dew Point 58 °F
Humidity 98%
Rainfall 0.38 in
Snow Depth Not available.
6:45 AM 6:00 PM
Waning Crescent, 29% visible
METAR KAEX 210253Z AUTO 17006KT 4SM +RA BR OVC080 15/15 A3000 RMK AO2 PRESRR SLP161 P0008 60023 T01500150 53016 $
Pressure 30.01 in
Visibility 4.0 miles
Clouds Overcast 8000 ft
Dew Point 58 °F
Humidity 98%
Rainfall 0.38 in
Snow Depth Not available.
6:45 AM 6:00 PM
Waning Crescent, 29% visible
METAR KAEX 210253Z AUTO 17006KT 4SM +RA BR OVC080 15/15 A3000 RMK AO2 PRESRR SLP161 P0008 60023 T01500150 53016 $

Get Your Daily Forecast Email!

Thanks for signing up!

Be on the lookout for a verification email in your inbox.

You'll start receiving the daily forecast at 8 AM.

×

10-Day Weather Forecast

Almanac

Astronomy

Feb. 20, 2017 Rise Set
Actual Time
Civil Twilight
Nautical Twilight
Astronomical Twilight
Moon
Length of Visible Light
Length of Day
Tomorrow will be .
, % of the Moon is Illuminated

Today's Extremes

State Highs State Lows

Community

WunderPhotos

Upload Photos

1,962,540 photos uploaded!

WunderBlog® & News

Nearby

Air Quality

  Air Quality AQ Index Pollutant
Not available.

Snow Depth

Station Depth Elevation

Earthquake Activity

City Distance Mag. Time & Date
Minimum magnitude displayed is 2.5.

Coastal Water Temperatures

Place Temperature

Stations

Nearby Weather Stations

Station Location Temp. Windchill Dew Point Humidity Wind Precip. Elev Updated Type
                   

Watches & Warnings

There are currently no watches in effect.